sensor_id;sensor_type;location;lat;lon;timestamp;pressure;altitude;pressure_sealevel;temperature;humidity
70103;BME280;57470;50.034;15.256;2024-01-06T00:00:34;98289.72;;;5.25;93.58
70103;BME280;57470;50.034;15.256;2024-01-06T00:02:59;98293.53;;;5.34;93.80
70103;BME280;57470;50.034;15.256;2024-01-06T00:05:24;98297.53;;;5.40;92.97
70103;BME280;57470;50.034;15.256;2024-01-06T00:07:50;98284.69;;;5.35;93.02
70103;BME280;57470;50.034;15.256;2024-01-06T00:10:15;98283.75;;;5.36;93.28
70103;BME280;57470;50.034;15.256;2024-01-06T00:12:41;98285.09;;;5.42;93.18
70103;BME280;57470;50.034;15.256;2024-01-06T00:15:06;98275.59;;;5.39;93.00
70103;BME280;57470;50.034;15.256;2024-01-06T00:17:32;98282.34;;;5.31;94.03
70103;BME280;57470;50.034;15.256;2024-01-06T00:19:57;98280.03;;;5.39;93.55
70103;BME280;57470;50.034;15.256;2024-01-06T00:22:25;98285.97;;;5.42;93.36
70103;BME280;57470;50.034;15.256;2024-01-06T00:24:50;98283.75;;;5.49;93.08
70103;BME280;57470;50.034;15.256;2024-01-06T00:27:16;98284.25;;;5.41;93.41
70103;BME280;57470;50.034;15.256;2024-01-06T00:29:41;98286.38;;;5.49;93.18
70103;BME280;57470;50.034;15.256;2024-01-06T00:32:06;98274.16;;;5.48;92.91
70103;BME280;57470;50.034;15.256;2024-01-06T00:34:32;98280.25;;;5.48;93.11
70103;BME280;57470;50.034;15.256;2024-01-06T00:36:57;98281.09;;;5.49;93.11
70103;BME280;57470;50.034;15.256;2024-01-06T00:39:23;98277.38;;;4.72;95.48
70103;BME280;57470;50.034;15.256;2024-01-06T00:41:48;98297.38;;;5.16;95.37
70103;BME280;57470;50.034;15.256;2024-01-06T00:44:13;98292.88;;;5.31;94.42
70103;BME280;57470;50.034;15.256;2024-01-06T00:46:39;98290.34;;;5.29;93.68
70103;BME280;57470;50.034;15.256;2024-01-06T00:49:05;98303.09;;;5.62;92.81
70103;BME280;57470;50.034;15.256;2024-01-06T00:51:30;98295.47;;;5.57;92.33
70103;BME280;57470;50.034;15.256;2024-01-06T00:53:55;98304.22;;;5.45;92.81
70103;BME280;57470;50.034;15.256;2024-01-06T00:56:21;98307.34;;;5.38;93.71
70103;BME280;57470;50.034;15.256;2024-01-06T00:58:47;98306.19;;;5.42;93.54
70103;BME280;57470;50.034;15.256;2024-01-06T01:01:12;98302.63;;;5.43;93.10
70103;BME280;57470;50.034;15.256;2024-01-06T01:03:38;98316.56;;;5.57;93.23
70103;BME280;57470;50.034;15.256;2024-01-06T01:06:03;98314.63;;;5.47;92.82
70103;BME280;57470;50.034;15.256;2024-01-06T01:08:29;98306.19;;;5.42;93.48
70103;BME280;57470;50.034;15.256;2024-01-06T01:10:55;98305.16;;;5.44;93.75
70103;BME280;57470;50.034;15.256;2024-01-06T01:13:21;98312.50;;;5.39;94.16
70103;BME280;57470;50.034;15.256;2024-01-06T01:15:47;98301.59;;;5.58;93.20
70103;BME280;57470;50.034;15.256;2024-01-06T01:18:12;98301.34;;;5.48;93.10
70103;BME280;57470;50.034;15.256;2024-01-06T01:20:37;98304.84;;;5.49;93.23
70103;BME280;57470;50.034;15.256;2024-01-06T01:23:03;98304.84;;;5.49;93.70
70103;BME280;57470;50.034;15.256;2024-01-06T01:25:28;98309.19;;;5.50;93.94
70103;BME280;57470;50.034;15.256;2024-01-06T01:27:54;98315.81;;;5.55;93.71
70103;BME280;57470;50.034;15.256;2024-01-06T01:30:19;98312.47;;;5.53;93.69
70103;BME280;57470;50.034;15.256;2024-01-06T01:32:45;98314.63;;;5.47;94.76
70103;BME280;57470;50.034;15.256;2024-01-06T01:35:11;98318.09;;;5.35;95.60
70103;BME280;57470;50.034;15.256;2024-01-06T01:37:36;98315.50;;;5.47;95.32
70103;BME280;57470;50.034;15.256;2024-01-06T01:40:02;98322.72;;;5.71;94.65
70103;BME280;57470;50.034;15.256;2024-01-06T01:42:27;98325.75;;;5.64;94.68
70103;BME280;57470;50.034;15.256;2024-01-06T01:44:53;98326.44;;;5.81;94.29
70103;BME280;57470;50.034;15.256;2024-01-06T01:47:18;98318.69;;;5.65;94.71
70103;BME280;57470;50.034;15.256;2024-01-06T01:49:46;98318.59;;;5.54;95.02
70103;BME280;57470;50.034;15.256;2024-01-06T01:52:13;98319.25;;;5.70;94.88
70103;BME280;57470;50.034;15.256;2024-01-06T01:54:40;98309.06;;;5.12;96.09
70103;BME280;57470;50.034;15.256;2024-01-06T01:57:06;98314.97;;;5.55;96.34
70103;BME280;57470;50.034;15.256;2024-01-06T01:59:31;98318.56;;;5.14;97.21
70103;BME280;57470;50.034;15.256;2024-01-06T02:01:58;98320.13;;;5.44;97.34
70103;BME280;57470;50.034;15.256;2024-01-06T02:04:23;98318.47;;;5.55;96.83
70103;BME280;57470;50.034;15.256;2024-01-06T02:06:49;98320.16;;;5.56;95.85
70103;BME280;57470;50.034;15.256;2024-01-06T02:09:15;98325.03;;;5.62;96.45
70103;BME280;57470;50.034;15.256;2024-01-06T02:11:40;98322.72;;;5.83;96.01
70103;BME280;57470;50.034;15.256;2024-01-06T02:14:06;98313.13;;;5.70;95.58
70103;BME280;57470;50.034;15.256;2024-01-06T02:16:31;98317.25;;;5.86;95.35
70103;BME280;57470;50.034;15.256;2024-01-06T02:18:57;98321.09;;;5.95;94.94
70103;BME280;57470;50.034;15.256;2024-01-06T02:21:23;98320.91;;;5.98;94.71
70103;BME280;57470;50.034;15.256;2024-01-06T02:23:49;98315.41;;;5.88;95.23
70103;BME280;57470;50.034;15.256;2024-01-06T02:26:17;98303.56;;;5.94;94.74
70103;BME280;57470;50.034;15.256;2024-01-06T02:28:43;98304.31;;;5.96;94.60
70103;BME280;57470;50.034;15.256;2024-01-06T02:31:14;98316.84;;;5.80;95.03
70103;BME280;57470;50.034;15.256;2024-01-06T02:33:40;98315.09;;;5.53;96.80
70103;BME280;57470;50.034;15.256;2024-01-06T02:36:08;98302.22;;;5.49;97.92
70103;BME280;57470;50.034;15.256;2024-01-06T02:38:34;98309.41;;;5.59;97.64
70103;BME280;57470;50.034;15.256;2024-01-06T02:41:01;98309.31;;;5.61;97.48
70103;BME280;57470;50.034;15.256;2024-01-06T02:43:28;98308.59;;;5.72;97.15
70103;BME280;57470;50.034;15.256;2024-01-06T02:45:55;98314.63;;;5.86;95.76
70103;BME280;57470;50.034;15.256;2024-01-06T02:48:22;98310.38;;;5.84;95.33
70103;BME280;57470;50.034;15.256;2024-01-06T02:50:49;98307.56;;;5.87;96.16
70103;BME280;57470;50.034;15.256;2024-01-06T02:53:16;98313.41;;;5.52;97.91
70103;BME280;57470;50.034;15.256;2024-01-06T02:55:44;98309.97;;;5.38;98.60
70103;BME280;57470;50.034;15.256;2024-01-06T02:58:10;98305.28;;;5.16;98.99
70103;BME280;57470;50.034;15.256;2024-01-06T03:00:38;98307.34;;;4.84;100.00
70103;BME280;57470;50.034;15.256;2024-01-06T03:03:05;98314.06;;;5.29;100.00
70103;BME280;57470;50.034;15.256;2024-01-06T03:05:32;98309.38;;;4.93;100.00
70103;BME280;57470;50.034;15.256;2024-01-06T03:07:59;98311.31;;;4.91;100.00
70103;BME280;57470;50.034;15.256;2024-01-06T03:10:26;98315.66;;;5.32;100.00
70103;BME280;57470;50.034;15.256;2024-01-06T03:12:53;98301.53;;;5.33;100.00
70103;BME280;57470;50.034;15.256;2024-01-06T03:15:20;98300.88;;;5.29;99.30
70103;BME280;57470;50.034;15.256;2024-01-06T03:17:47;98300.84;;;5.43;99.75
70103;BME280;57470;50.034;15.256;2024-01-06T03:20:14;98298.63;;;5.50;99.14
70103;BME280;57470;50.034;15.256;2024-01-06T03:22:42;98295.31;;;5.34;99.82
70103;BME280;57470;50.034;15.256;2024-01-06T03:25:08;98293.03;;;4.88;100.00
70103;BME280;57470;50.034;15.256;2024-01-06T03:27:33;98296.69;;;5.39;99.62
70103;BME280;57470;50.034;15.256;2024-01-06T03:29:59;98294.16;;;5.38;99.84
70103;BME280;57470;50.034;15.256;2024-01-06T03:32:24;98293.72;;;5.31;100.00
70103;BME280;57470;50.034;15.256;2024-01-06T03:34:49;98295.75;;;5.01;100.00
70103;BME280;57470;50.034;15.256;2024-01-06T03:37:15;98295.38;;;5.59;99.90
70103;BME280;57470;50.034;15.256;2024-01-06T03:39:40;98295.94;;;5.77;97.97
70103;BME280;57470;50.034;15.256;2024-01-06T03:42:06;98289.00;;;6.01;96.45
70103;BME280;57470;50.034;15.256;2024-01-06T03:44:31;98288.38;;;5.97;96.50
70103;BME280;57470;50.034;15.256;2024-01-06T03:46:59;98281.72;;;5.92;96.65
70103;BME280;57470;50.034;15.256;2024-01-06T03:49:24;98286.47;;;5.99;96.49
70103;BME280;57470;50.034;15.256;2024-01-06T03:51:50;98290.59;;;6.03;95.79
70103;BME280;57470;50.034;15.256;2024-01-06T03:54:15;98293.44;;;6.00;95.49
70103;BME280;57470;50.034;15.256;2024-01-06T03:56:40;98304.19;;;6.10;95.78
70103;BME280;57470;50.034;15.256;2024-01-06T03:59:06;98305.47;;;6.05;95.69
70103;BME280;57470;50.034;15.256;2024-01-06T04:01:32;98293.66;;;5.97;95.90
70103;BME280;57470;50.034;15.256;2024-01-06T04:04:00;98290.59;;;6.03;95.74
70103;BME280;57470;50.034;15.256;2024-01-06T04:06:25;98297.47;;;6.06;95.50
70103;BME280;57470;50.034;15.256;2024-01-06T04:08:52;98289.63;;;6.05;95.34
70103;BME280;57470;50.034;15.256;2024-01-06T04:11:20;98282.88;;;5.88;95.56
70103;BME280;57470;50.034;15.256;2024-01-06T04:13:45;98284.34;;;5.92;95.73
70103;BME280;57470;50.034;15.256;2024-01-06T04:16:11;98278.88;;;5.95;95.79
70103;BME280;57470;50.034;15.256;2024-01-06T04:18:36;98282.34;;;5.95;95.72
70103;BME280;57470;50.034;15.256;2024-01-06T04:21:01;98283.31;;;6.07;95.39
70103;BME280;57470;50.034;15.256;2024-01-06T04:23:27;98286.16;;;6.04;95.30
70103;BME280;57470;50.034;15.256;2024-01-06T04:25:52;98284.06;;;5.96;95.27
70103;BME280;57470;50.034;15.256;2024-01-06T04:28:17;98289.84;;;6.01;95.29
70103;BME280;57470;50.034;15.256;2024-01-06T04:30:43;98285.63;;;5.99;95.67
70103;BME280;57470;50.034;15.256;2024-01-06T04:33:08;98290.47;;;5.92;95.47
70103;BME280;57470;50.034;15.256;2024-01-06T04:35:33;98281.84;;;5.90;95.57
70103;BME280;57470;50.034;15.256;2024-01-06T04:37:59;98288.59;;;5.94;95.43
70103;BME280;57470;50.034;15.256;2024-01-06T04:40:24;98283.63;;;6.02;95.17
70103;BME280;57470;50.034;15.256;2024-01-06T04:42:50;98283.72;;;5.88;95.48
70103;BME280;57470;50.034;15.256;2024-01-06T04:45:15;98291.13;;;5.96;95.23
70103;BME280;57470;50.034;15.256;2024-01-06T04:47:40;98295.22;;;6.00;95.27
70103;BME280;57470;50.034;15.256;2024-01-06T04:50:07;98294.34;;;5.61;95.46
70103;BME280;57470;50.034;15.256;2024-01-06T04:52:32;98296.78;;;5.38;97.38
70103;BME280;57470;50.034;15.256;2024-01-06T04:54:58;98298.56;;;5.77;96.68
70103;BME280;57470;50.034;15.256;2024-01-06T04:57:23;98297.09;;;5.85;95.80
70103;BME280;57470;50.034;15.256;2024-01-06T04:59:49;98306.81;;;5.85;95.37
70103;BME280;57470;50.034;15.256;2024-01-06T05:02:15;98304.31;;;5.96;95.41
70103;BME280;57470;50.034;15.256;2024-01-06T05:04:40;98308.50;;;5.86;95.20
70103;BME280;57470;50.034;15.256;2024-01-06T05:07:05;98323.41;;;5.99;94.73
70103;BME280;57470;50.034;15.256;2024-01-06T05:09:31;98313.38;;;5.92;94.72
70103;BME280;57470;50.034;15.256;2024-01-06T05:11:56;98309.25;;;6.00;94.05
70103;BME280;57470;50.034;15.256;2024-01-06T05:14:21;98313.53;;;5.76;94.97
70103;BME280;57470;50.034;15.256;2024-01-06T05:16:47;98304.47;;;5.01;97.96
70103;BME280;57470;50.034;15.256;2024-01-06T05:19:12;98310.56;;;4.75;99.72
70103;BME280;57470;50.034;15.256;2024-01-06T05:21:44;98316.66;;;5.16;100.00
70103;BME280;57470;50.034;15.256;2024-01-06T05:24:09;98322.69;;;5.18;99.16
70103;BME280;57470;50.034;15.256;2024-01-06T05:26:35;98324.06;;;4.97;99.88
70103;BME280;57470;50.034;15.256;2024-01-06T05:29:00;98335.50;;;5.10;100.00
70103;BME280;57470;50.034;15.256;2024-01-06T05:31:25;98333.69;;;5.38;98.79
70103;BME280;57470;50.034;15.256;2024-01-06T05:33:51;98332.91;;;5.50;97.95
70103;BME280;57470;50.034;15.256;2024-01-06T05:36:19;98330.94;;;5.53;97.33
70103;BME280;57470;50.034;15.256;2024-01-06T05:38:48;98342.09;;;5.44;97.20
70103;BME280;57470;50.034;15.256;2024-01-06T05:41:13;98348.78;;;5.62;96.86
70103;BME280;57470;50.034;15.256;2024-01-06T05:43:38;98358.91;;;5.69;96.28
70103;BME280;57470;50.034;15.256;2024-01-06T05:46:04;98354.56;;;5.68;96.12
70103;BME280;57470;50.034;15.256;2024-01-06T05:48:29;98346.84;;;5.52;96.37
70103;BME280;57470;50.034;15.256;2024-01-06T05:50:55;98346.34;;;5.59;96.25
70103;BME280;57470;50.034;15.256;2024-01-06T05:53:20;98354.34;;;5.58;96.16
70103;BME280;57470;50.034;15.256;2024-01-06T05:55:46;98353.22;;;5.62;95.84
70103;BME280;57470;50.034;15.256;2024-01-06T05:58:11;98357.31;;;5.66;95.41
70103;BME280;57470;50.034;15.256;2024-01-06T06:00:37;98356.19;;;5.70;95.52
70103;BME280;57470;50.034;15.256;2024-01-06T06:03:02;98358.16;;;5.54;96.13
70103;BME280;57470;50.034;15.256;2024-01-06T06:05:28;98361.34;;;5.72;95.32
70103;BME280;57470;50.034;15.256;2024-01-06T06:07:53;98358.16;;;5.66;94.73
70103;BME280;57470;50.034;15.256;2024-01-06T06:10:19;98366.16;;;5.65;95.08
70103;BME280;57470;50.034;15.256;2024-01-06T06:12:45;98373.78;;;5.70;94.70
70103;BME280;57470;50.034;15.256;2024-01-06T06:15:11;98379.47;;;5.90;94.43
70103;BME280;57470;50.034;15.256;2024-01-06T06:17:36;98374.06;;;5.92;94.09
70103;BME280;57470;50.034;15.256;2024-01-06T06:20:02;98375.72;;;5.80;94.72
70103;BME280;57470;50.034;15.256;2024-01-06T06:22:28;98372.53;;;5.75;95.27
70103;BME280;57470;50.034;15.256;2024-01-06T06:24:57;98381.09;;;5.79;95.53
70103;BME280;57470;50.034;15.256;2024-01-06T06:27:23;98382.28;;;5.87;95.07
70103;BME280;57470;50.034;15.256;2024-01-06T06:29:49;98390.47;;;5.83;94.93
70103;BME280;57470;50.034;15.256;2024-01-06T06:32:14;98396.78;;;5.94;94.80
70103;BME280;57470;50.034;15.256;2024-01-06T06:34:39;98400.50;;;6.05;93.85
70103;BME280;57470;50.034;15.256;2024-01-06T06:37:05;98391.13;;;5.86;94.61
70103;BME280;57470;50.034;15.256;2024-01-06T06:39:31;98394.91;;;5.82;94.86
70103;BME280;57470;50.034;15.256;2024-01-06T06:41:57;98399.00;;;6.00;94.76
70103;BME280;57470;50.034;15.256;2024-01-06T06:44:22;98396.78;;;5.68;95.30
70103;BME280;57470;50.034;15.256;2024-01-06T06:46:48;98409.13;;;5.67;96.08
70103;BME280;57470;50.034;15.256;2024-01-06T06:49:14;98418.38;;;5.87;95.46
70103;BME280;57470;50.034;15.256;2024-01-06T06:51:39;98415.66;;;5.88;95.37
70103;BME280;57470;50.034;15.256;2024-01-06T06:54:11;98415.31;;;5.80;95.72
70103;BME280;57470;50.034;15.256;2024-01-06T06:56:37;98412.44;;;5.83;95.88
70103;BME280;57470;50.034;15.256;2024-01-06T06:59:03;98419.63;;;5.81;96.20
70103;BME280;57470;50.034;15.256;2024-01-06T07:01:28;98415.31;;;5.80;95.96
70103;BME280;57470;50.034;15.256;2024-01-06T07:03:53;98416.16;;;5.81;96.37
70103;BME280;57470;50.034;15.256;2024-01-06T07:06:19;98407.78;;;5.74;96.49
70103;BME280;57470;50.034;15.256;2024-01-06T07:08:45;98411.16;;;5.76;96.43
70103;BME280;57470;50.034;15.256;2024-01-06T07:11:10;98410.16;;;5.91;96.21
70103;BME280;57470;50.034;15.256;2024-01-06T07:13:37;98407.38;;;5.80;96.39
70103;BME280;57470;50.034;15.256;2024-01-06T07:16:02;98408.34;;;5.79;96.25
70103;BME280;57470;50.034;15.256;2024-01-06T07:18:28;98419.72;;;5.80;96.64
70103;BME280;57470;50.034;15.256;2024-01-06T07:20:53;98424.78;;;5.97;96.73
70103;BME280;57470;50.034;15.256;2024-01-06T07:23:18;98420.75;;;6.04;96.17
70103;BME280;57470;50.034;15.256;2024-01-06T07:25:44;98422.97;;;5.97;95.63
70103;BME280;57470;50.034;15.256;2024-01-06T07:28:09;98431.41;;;5.90;96.69
70103;BME280;57470;50.034;15.256;2024-01-06T07:30:35;98436.28;;;6.09;95.83
70103;BME280;57470;50.034;15.256;2024-01-06T07:33:00;98436.59;;;6.04;95.89
70103;BME280;57470;50.034;15.256;2024-01-06T07:35:26;98448.06;;;6.17;96.04
70103;BME280;57470;50.034;15.256;2024-01-06T07:37:51;98441.28;;;6.13;95.91
70103;BME280;57470;50.034;15.256;2024-01-06T07:40:18;98444.66;;;6.15;95.96
70103;BME280;57470;50.034;15.256;2024-01-06T07:42:43;98443.38;;;6.08;95.75
70103;BME280;57470;50.034;15.256;2024-01-06T07:45:12;98451.59;;;6.03;96.34
70103;BME280;57470;50.034;15.256;2024-01-06T07:47:38;98450.50;;;5.93;97.15
70103;BME280;57470;50.034;15.256;2024-01-06T07:50:04;98455.59;;;5.82;98.01
70103;BME280;57470;50.034;15.256;2024-01-06T07:52:30;98455.16;;;5.76;98.37
70103;BME280;57470;50.034;15.256;2024-01-06T07:54:55;98460.25;;;6.06;98.54
70103;BME280;57470;50.034;15.256;2024-01-06T07:57:21;98457.41;;;5.82;98.53
70103;BME280;57470;50.034;15.256;2024-01-06T07:59:46;98453.28;;;6.05;99.12
70103;BME280;57470;50.034;15.256;2024-01-06T08:02:12;98466.66;;;5.89;98.70
70103;BME280;57470;50.034;15.256;2024-01-06T08:04:37;98467.91;;;5.69;99.95
70103;BME280;57470;50.034;15.256;2024-01-06T08:07:02;98465.31;;;5.82;100.00
70103;BME280;57470;50.034;15.256;2024-01-06T08:09:28;98470.47;;;5.97;100.00
70103;BME280;57470;50.034;15.256;2024-01-06T08:11:53;98480.94;;;5.99;99.46
70103;BME280;57470;50.034;15.256;2024-01-06T08:14:18;98483.22;;;5.91;100.00
70103;BME280;57470;50.034;15.256;2024-01-06T08:16:44;98481.16;;;6.09;99.54
70103;BME280;57470;50.034;15.256;2024-01-06T08:19:09;98485.44;;;6.36;99.08
70103;BME280;57470;50.034;15.256;2024-01-06T08:21:35;98483.56;;;6.26;99.14
70103;BME280;57470;50.034;15.256;2024-01-06T08:24:00;98481.91;;;6.11;99.07
70103;BME280;57470;50.034;15.256;2024-01-06T08:26:26;98491.56;;;6.24;99.47
70103;BME280;57470;50.034;15.256;2024-01-06T08:28:51;98490.06;;;6.20;99.46
70103;BME280;57470;50.034;15.256;2024-01-06T08:31:17;98494.81;;;6.15;99.43
70103;BME280;57470;50.034;15.256;2024-01-06T08:33:43;98493.63;;;6.07;99.78
70103;BME280;57470;50.034;15.256;2024-01-06T08:36:08;98500.88;;;6.30;99.25
70103;BME280;57470;50.034;15.256;2024-01-06T08:38:34;98495.09;;;5.98;99.94
70103;BME280;57470;50.034;15.256;2024-01-06T08:41:00;98503.66;;;6.41;99.08
70103;BME280;57470;50.034;15.256;2024-01-06T08:43:26;98498.16;;;6.57;98.73
70103;BME280;57470;50.034;15.256;2024-01-06T08:45:51;98508.13;;;6.78;97.67
70103;BME280;57470;50.034;15.256;2024-01-06T08:48:17;98507.81;;;6.70;97.07
70103;BME280;57470;50.034;15.256;2024-01-06T08:50:43;98521.44;;;6.90;96.89
70103;BME280;57470;50.034;15.256;2024-01-06T08:53:11;98514.97;;;7.19;96.10
70103;BME280;57470;50.034;15.256;2024-01-06T08:55:36;98517.84;;;6.91;96.36
70103;BME280;57470;50.034;15.256;2024-01-06T08:58:01;98524.19;;;7.01;97.01
70103;BME280;57470;50.034;15.256;2024-01-06T09:00:27;98512.94;;;6.34;97.50
70103;BME280;57470;50.034;15.256;2024-01-06T09:02:52;98508.06;;;6.40;98.01
70103;BME280;57470;50.034;15.256;2024-01-06T09:05:18;98517.38;;;6.33;97.96
70103;BME280;57470;50.034;15.256;2024-01-06T09:07:43;98520.03;;;6.59;98.77
70103;BME280;57470;50.034;15.256;2024-01-06T09:10:09;98526.63;;;6.91;97.39
70103;BME280;57470;50.034;15.256;2024-01-06T09:12:35;98528.84;;;6.85;97.04
70103;BME280;57470;50.034;15.256;2024-01-06T09:15:00;98523.66;;;6.70;97.41
70103;BME280;57470;50.034;15.256;2024-01-06T09:17:26;98530.97;;;7.05;97.30
70103;BME280;57470;50.034;15.256;2024-01-06T09:19:51;98533.63;;;7.05;97.14
70103;BME280;57470;50.034;15.256;2024-01-06T09:22:19;98535.81;;;6.98;97.00
70103;BME280;57470;50.034;15.256;2024-01-06T09:24:44;98538.06;;;7.04;96.93
70103;BME280;57470;50.034;15.256;2024-01-06T09:27:09;98541.72;;;6.64;97.64
70103;BME280;57470;50.034;15.256;2024-01-06T09:29:35;98553.06;;;7.04;96.69
70103;BME280;57470;50.034;15.256;2024-01-06T09:32:00;98546.63;;;7.33;96.61
70103;BME280;57470;50.034;15.256;2024-01-06T09:34:25;98550.06;;;7.46;96.08
70103;BME280;57470;50.034;15.256;2024-01-06T09:36:51;98538.69;;;7.33;96.02
70103;BME280;57470;50.034;15.256;2024-01-06T09:39:16;98540.03;;;7.39;95.62
70103;BME280;57470;50.034;15.256;2024-01-06T09:41:42;98538.28;;;7.63;95.33
70103;BME280;57470;50.034;15.256;2024-01-06T09:44:08;98545.09;;;7.54;95.16
70103;BME280;57470;50.034;15.256;2024-01-06T09:46:34;98537.03;;;7.69;94.65
70103;BME280;57470;50.034;15.256;2024-01-06T09:49:01;98543.03;;;7.71;94.72
70103;BME280;57470;50.034;15.256;2024-01-06T09:51:26;98549.09;;;7.60;94.80
70103;BME280;57470;50.034;15.256;2024-01-06T09:53:58;98548.88;;;7.63;94.99
70103;BME280;57470;50.034;15.256;2024-01-06T09:56:26;98534.50;;;7.54;94.39
70103;BME280;57470;50.034;15.256;2024-01-06T09:58:51;98538.09;;;7.53;94.99
70103;BME280;57470;50.034;15.256;2024-01-06T10:01:18;98539.00;;;7.78;94.76
70103;BME280;57470;50.034;15.256;2024-01-06T10:03:43;98536.22;;;7.79;95.15
70103;BME280;57470;50.034;15.256;2024-01-06T10:06:11;98541.81;;;7.51;96.02
70103;BME280;57470;50.034;15.256;2024-01-06T10:08:36;98539.63;;;7.32;95.87
70103;BME280;57470;50.034;15.256;2024-01-06T10:11:02;98547.66;;;7.31;96.04
70103;BME280;57470;50.034;15.256;2024-01-06T10:13:28;98545.88;;;7.06;96.85
70103;BME280;57470;50.034;15.256;2024-01-06T10:15:54;98539.38;;;7.35;96.41
70103;BME280;57470;50.034;15.256;2024-01-06T10:18:20;98534.84;;;7.37;96.19
70103;BME280;57470;50.034;15.256;2024-01-06T10:20:46;98536.88;;;7.21;95.90
70103;BME280;57470;50.034;15.256;2024-01-06T10:23:12;98546.56;;;7.59;96.13
70103;BME280;57470;50.034;15.256;2024-01-06T10:25:38;98547.91;;;7.77;95.63
70103;BME280;57470;50.034;15.256;2024-01-06T10:28:04;98549.22;;;7.59;95.18
70103;BME280;57470;50.034;15.256;2024-01-06T10:30:29;98547.28;;;7.61;95.71
70103;BME280;57470;50.034;15.256;2024-01-06T10:32:55;98543.91;;;7.59;96.00
70103;BME280;57470;50.034;15.256;2024-01-06T10:35:20;98534.19;;;7.34;95.99
70103;BME280;57470;50.034;15.256;2024-01-06T10:37:47;98549.97;;;7.48;96.46
70103;BME280;57470;50.034;15.256;2024-01-06T10:40:14;98538.16;;;7.15;97.33
70103;BME280;57470;50.034;15.256;2024-01-06T10:42:42;98535.56;;;7.52;96.00
70103;BME280;57470;50.034;15.256;2024-01-06T10:45:09;98535.44;;;7.53;96.05
70103;BME280;57470;50.034;15.256;2024-01-06T10:47:36;98526.38;;;7.45;96.34
70103;BME280;57470;50.034;15.256;2024-01-06T10:50:02;98534.50;;;7.54;96.67
70103;BME280;57470;50.034;15.256;2024-01-06T10:52:28;98534.03;;;7.61;96.89
70103;BME280;57470;50.034;15.256;2024-01-06T10:54:54;98532.97;;;7.76;96.17
70103;BME280;57470;50.034;15.256;2024-01-06T10:57:20;98536.97;;;7.81;95.94
70103;BME280;57470;50.034;15.256;2024-01-06T10:59:49;98532.22;;;7.74;95.70
70103;BME280;57470;50.034;15.256;2024-01-06T11:02:15;98528.84;;;7.72;96.09
70103;BME280;57470;50.034;15.256;2024-01-06T11:04:48;98527.88;;;7.73;95.71
70103;BME280;57470;50.034;15.256;2024-01-06T11:07:16;98523.25;;;8.00;95.05
70103;BME280;57470;50.034;15.256;2024-01-06T11:10:04;98526.91;;;7.86;95.35
70103;BME280;57470;50.034;15.256;2024-01-06T11:12:31;98520.22;;;7.57;96.65
70103;BME280;57470;50.034;15.256;2024-01-06T11:14:56;98519.84;;;7.74;96.27
70103;BME280;57470;50.034;15.256;2024-01-06T11:17:57;98514.06;;;7.69;96.00
70103;BME280;57470;50.034;15.256;2024-01-06T11:20:24;98526.09;;;7.61;96.16
70103;BME280;57470;50.034;15.256;2024-01-06T11:22:50;98523.25;;;7.14;98.56
70103;BME280;57470;50.034;15.256;2024-01-06T11:25:17;98514.06;;;7.69;96.91
70103;BME280;57470;50.034;15.256;2024-01-06T11:27:44;98509.28;;;7.62;96.43
70103;BME280;57470;50.034;15.256;2024-01-06T11:30:20;98514.09;;;7.44;97.80
70103;BME280;57470;50.034;15.256;2024-01-06T11:32:45;98501.34;;;7.62;96.85
70103;BME280;57470;50.034;15.256;2024-01-06T11:35:13;98501.34;;;7.62;96.77
70103;BME280;57470;50.034;15.256;2024-01-06T11:40:17;98504.69;;;7.40;97.24
70103;BME280;57470;50.034;15.256;2024-01-06T11:43:09;98508.00;;;7.67;96.80
70103;BME280;57470;50.034;15.256;2024-01-06T11:45:35;98503.84;;;7.76;95.78
70103;BME280;57470;50.034;15.256;2024-01-06T11:48:03;98504.72;;;7.64;96.26
70103;BME280;57470;50.034;15.256;2024-01-06T11:50:32;98498.41;;;7.53;96.37
70103;BME280;57470;50.034;15.256;2024-01-06T11:52:59;98489.56;;;7.29;96.88
70103;BME280;57470;50.034;15.256;2024-01-06T11:55:27;98492.63;;;7.36;97.84
70103;BME280;57470;50.034;15.256;2024-01-06T11:58:00;98493.38;;;7.38;97.27
70103;BME280;57470;50.034;15.256;2024-01-06T12:00:28;98493.06;;;7.42;98.09
70103;BME280;57470;50.034;15.256;2024-01-06T12:03:01;98496.59;;;7.54;97.70
70103;BME280;57470;50.034;15.256;2024-01-06T12:05:27;98493.25;;;7.39;97.81
70103;BME280;57470;50.034;15.256;2024-01-06T12:07:56;98498.38;;;7.30;97.92
70103;BME280;57470;50.034;15.256;2024-01-06T12:10:23;98492.72;;;7.47;98.14
70103;BME280;57470;50.034;15.256;2024-01-06T12:15:22;98492.31;;;7.40;98.18
70103;BME280;57470;50.034;15.256;2024-01-06T12:17:47;98490.72;;;7.50;97.58
70103;BME280;57470;50.034;15.256;2024-01-06T12:20:13;98491.38;;;7.41;97.82
70103;BME280;57470;50.034;15.256;2024-01-06T12:22:39;98493.13;;;7.53;97.62
70103;BME280;57470;50.034;15.256;2024-01-06T12:25:04;98503.19;;;7.48;97.83
70103;BME280;57470;50.034;15.256;2024-01-06T12:27:32;98507.16;;;7.30;99.08
70103;BME280;57470;50.034;15.256;2024-01-06T12:29:57;98506.44;;;7.52;98.33
70103;BME280;57470;50.034;15.256;2024-01-06T12:32:23;98498.66;;;7.38;98.46
70103;BME280;57470;50.034;15.256;2024-01-06T12:34:48;98498.09;;;7.45;98.75
70103;BME280;57470;50.034;15.256;2024-01-06T12:37:14;98496.56;;;7.30;99.03
70103;BME280;57470;50.034;15.256;2024-01-06T12:39:40;98503.09;;;7.50;98.83
70103;BME280;57470;50.034;15.256;2024-01-06T12:42:07;98495.75;;;7.53;98.16
70103;BME280;57470;50.034;15.256;2024-01-06T12:44:34;98493.38;;;7.25;98.53
70103;BME280;57470;50.034;15.256;2024-01-06T12:47:02;98494.84;;;7.42;98.80
70103;BME280;57470;50.034;15.256;2024-01-06T12:49:28;98492.88;;;7.20;99.27
70103;BME280;57470;50.034;15.256;2024-01-06T12:51:54;98495.63;;;7.31;99.65
70103;BME280;57470;50.034;15.256;2024-01-06T12:54:19;98493.38;;;7.25;99.64
70103;BME280;57470;50.034;15.256;2024-01-06T12:56:45;98499.41;;;7.40;99.27
70103;BME280;57470;50.034;15.256;2024-01-06T12:59:10;98499.66;;;7.11;98.87